sensor_id;sensor_type;location;lat;lon;timestamp;P1;durP1;ratioP1;P2;durP2;ratioP2
24163;SDS011;12319;49.204;8.116;2023-04-03T00:02:07;3.13;;;1.63;;
24163;SDS011;12319;49.204;8.116;2023-04-03T00:04:33;3.13;;;1.80;;
24163;SDS011;12319;49.204;8.116;2023-04-03T00:06:59;3.05;;;1.67;;
24163;SDS011;12319;49.204;8.116;2023-04-03T00:09:25;3.30;;;1.87;;
24163;SDS011;12319;49.204;8.116;2023-04-03T00:11:50;3.10;;;1.80;;
24163;SDS011;12319;49.204;8.116;2023-04-03T00:14:16;3.33;;;1.77;;
24163;SDS011;12319;49.204;8.116;2023-04-03T00:16:42;2.87;;;1.60;;
24163;SDS011;12319;49.204;8.116;2023-04-03T00:19:07;2.53;;;1.50;;
24163;SDS011;12319;49.204;8.116;2023-04-03T00:21:33;3.30;;;1.80;;
24163;SDS011;12319;49.204;8.116;2023-04-03T00:23:59;3.00;;;1.67;;
24163;SDS011;12319;49.204;8.116;2023-04-03T00:26:24;2.80;;;1.70;;
24163;SDS011;12319;49.204;8.116;2023-04-03T00:28:50;2.67;;;1.60;;
24163;SDS011;12319;49.204;8.116;2023-04-03T00:31:15;3.28;;;1.90;;
24163;SDS011;12319;49.204;8.116;2023-04-03T00:33:41;2.93;;;1.70;;
24163;SDS011;12319;49.204;8.116;2023-04-03T00:36:08;2.35;;;1.50;;
24163;SDS011;12319;49.204;8.116;2023-04-03T00:38:35;3.37;;;1.80;;
24163;SDS011;12319;49.204;8.116;2023-04-03T00:41:01;3.90;;;1.80;;
24163;SDS011;12319;49.204;8.116;2023-04-03T00:43:27;3.38;;;1.80;;
24163;SDS011;12319;49.204;8.116;2023-04-03T00:45:56;2.60;;;1.50;;
24163;SDS011;12319;49.204;8.116;2023-04-03T00:48:28;3.40;;;1.90;;
24163;SDS011;12319;49.204;8.116;2023-04-03T00:50:56;3.28;;;1.77;;
24163;SDS011;12319;49.204;8.116;2023-04-03T00:53:23;3.72;;;1.70;;
24163;SDS011;12319;49.204;8.116;2023-04-03T00:56:02;3.45;;;1.85;;
24163;SDS011;12319;49.204;8.116;2023-04-03T00:58:34;3.33;;;1.80;;
24163;SDS011;12319;49.204;8.116;2023-04-03T01:01:25;3.53;;;1.60;;
24163;SDS011;12319;49.204;8.116;2023-04-03T01:03:52;3.08;;;1.70;;
24163;SDS011;12319;49.204;8.116;2023-04-03T01:06:20;3.37;;;1.80;;
24163;SDS011;12319;49.204;8.116;2023-04-03T01:08:49;3.30;;;1.70;;
24163;SDS011;12319;49.204;8.116;2023-04-03T01:11:15;3.78;;;1.92;;
24163;SDS011;12319;49.204;8.116;2023-04-03T01:13:41;2.90;;;1.60;;
24163;SDS011;12319;49.204;8.116;2023-04-03T01:16:07;3.42;;;1.80;;
24163;SDS011;12319;49.204;8.116;2023-04-03T01:18:34;3.40;;;1.88;;
24163;SDS011;12319;49.204;8.116;2023-04-03T01:26:49;4.10;;;1.90;;
24163;SDS011;12319;49.204;8.116;2023-04-03T01:29:15;3.75;;;1.88;;
24163;SDS011;12319;49.204;8.116;2023-04-03T01:31:44;3.37;;;1.87;;
24163;SDS011;12319;49.204;8.116;2023-04-03T01:34:20;4.28;;;2.30;;
24163;SDS011;12319;49.204;8.116;2023-04-03T01:36:45;3.60;;;1.90;;
24163;SDS011;12319;49.204;8.116;2023-04-03T01:39:11;3.47;;;1.80;;
24163;SDS011;12319;49.204;8.116;2023-04-03T01:41:37;4.37;;;2.13;;
24163;SDS011;12319;49.204;8.116;2023-04-03T01:44:02;3.35;;;1.90;;
24163;SDS011;12319;49.204;8.116;2023-04-03T01:46:29;3.53;;;2.00;;
24163;SDS011;12319;49.204;8.116;2023-04-03T01:48:55;3.92;;;2.20;;
24163;SDS011;12319;49.204;8.116;2023-04-03T01:51:20;3.20;;;1.70;;
24163;SDS011;12319;49.204;8.116;2023-04-03T01:53:46;3.17;;;1.70;;
24163;SDS011;12319;49.204;8.116;2023-04-03T01:56:11;3.00;;;1.83;;
24163;SDS011;12319;49.204;8.116;2023-04-03T01:58:37;3.38;;;1.77;;
24163;SDS011;12319;49.204;8.116;2023-04-03T02:01:03;3.70;;;1.98;;
24163;SDS011;12319;49.204;8.116;2023-04-03T02:03:28;3.45;;;1.70;;
24163;SDS011;12319;49.204;8.116;2023-04-03T02:05:54;3.60;;;2.00;;
24163;SDS011;12319;49.204;8.116;2023-04-03T02:08:20;3.47;;;1.75;;
24163;SDS011;12319;49.204;8.116;2023-04-03T02:10:49;3.77;;;1.90;;
24163;SDS011;12319;49.204;8.116;2023-04-03T02:13:15;4.35;;;1.90;;
24163;SDS011;12319;49.204;8.116;2023-04-03T02:15:41;4.60;;;2.22;;
24163;SDS011;12319;49.204;8.116;2023-04-03T02:18:07;3.03;;;1.70;;
24163;SDS011;12319;49.204;8.116;2023-04-03T02:20:32;4.60;;;1.80;;
24163;SDS011;12319;49.204;8.116;2023-04-03T02:22:58;3.55;;;1.90;;
24163;SDS011;12319;49.204;8.116;2023-04-03T02:25:25;2.92;;;1.80;;
24163;SDS011;12319;49.204;8.116;2023-04-03T02:27:51;3.80;;;2.03;;
24163;SDS011;12319;49.204;8.116;2023-04-03T02:30:16;3.10;;;1.75;;
24163;SDS011;12319;49.204;8.116;2023-04-03T02:32:42;3.63;;;1.90;;
24163;SDS011;12319;49.204;8.116;2023-04-03T02:35:09;3.47;;;1.90;;
24163;SDS011;12319;49.204;8.116;2023-04-03T02:37:35;3.10;;;1.70;;
24163;SDS011;12319;49.204;8.116;2023-04-03T02:40:00;3.73;;;2.00;;
24163;SDS011;12319;49.204;8.116;2023-04-03T02:42:26;3.30;;;2.00;;
24163;SDS011;12319;49.204;8.116;2023-04-03T02:44:52;3.23;;;1.90;;
24163;SDS011;12319;49.204;8.116;2023-04-03T02:47:17;3.90;;;2.10;;
24163;SDS011;12319;49.204;8.116;2023-04-03T02:49:43;3.97;;;2.30;;
24163;SDS011;12319;49.204;8.116;2023-04-03T02:52:10;4.00;;;2.17;;
24163;SDS011;12319;49.204;8.116;2023-04-03T02:54:35;4.13;;;2.10;;
24163;SDS011;12319;49.204;8.116;2023-04-03T02:57:01;4.07;;;1.80;;
24163;SDS011;12319;49.204;8.116;2023-04-03T02:59:26;3.90;;;2.10;;
24163;SDS011;12319;49.204;8.116;2023-04-03T03:01:52;5.07;;;2.00;;
24163;SDS011;12319;49.204;8.116;2023-04-03T03:04:18;3.23;;;1.83;;
24163;SDS011;12319;49.204;8.116;2023-04-03T03:06:43;3.25;;;1.80;;
24163;SDS011;12319;49.204;8.116;2023-04-03T03:09:09;3.60;;;1.90;;
24163;SDS011;12319;49.204;8.116;2023-04-03T03:11:35;4.00;;;2.30;;
24163;SDS011;12319;49.204;8.116;2023-04-03T03:14:00;3.87;;;2.10;;
24163;SDS011;12319;49.204;8.116;2023-04-03T03:16:26;2.87;;;1.60;;
24163;SDS011;12319;49.204;8.116;2023-04-03T03:18:51;3.83;;;1.90;;
24163;SDS011;12319;49.204;8.116;2023-04-03T03:21:17;5.30;;;2.47;;
24163;SDS011;12319;49.204;8.116;2023-04-03T03:23:42;3.80;;;2.10;;
24163;SDS011;12319;49.204;8.116;2023-04-03T03:26:09;3.88;;;2.00;;
24163;SDS011;12319;49.204;8.116;2023-04-03T03:28:35;4.10;;;2.17;;
24163;SDS011;12319;49.204;8.116;2023-04-03T03:31:02;3.03;;;1.60;;
24163;SDS011;12319;49.204;8.116;2023-04-03T03:33:28;4.47;;;2.20;;
24163;SDS011;12319;49.204;8.116;2023-04-03T03:35:54;3.80;;;1.90;;
24163;SDS011;12319;49.204;8.116;2023-04-03T03:38:20;4.10;;;2.13;;
24163;SDS011;12319;49.204;8.116;2023-04-03T03:40:47;5.70;;;1.77;;
24163;SDS011;12319;49.204;8.116;2023-04-03T03:43:13;4.50;;;2.20;;
24163;SDS011;12319;49.204;8.116;2023-04-03T03:45:39;4.90;;;2.13;;
24163;SDS011;12319;49.204;8.116;2023-04-03T03:48:05;5.03;;;2.10;;
24163;SDS011;12319;49.204;8.116;2023-04-03T03:50:30;3.90;;;2.00;;
24163;SDS011;12319;49.204;8.116;2023-04-03T03:52:56;3.78;;;1.90;;
24163;SDS011;12319;49.204;8.116;2023-04-03T03:55:21;3.80;;;1.80;;
24163;SDS011;12319;49.204;8.116;2023-04-03T03:57:47;4.20;;;2.25;;
24163;SDS011;12319;49.204;8.116;2023-04-03T04:00:13;3.70;;;1.83;;
24163;SDS011;12319;49.204;8.116;2023-04-03T04:02:40;4.15;;;2.20;;
24163;SDS011;12319;49.204;8.116;2023-04-03T04:05:06;4.23;;;2.10;;
24163;SDS011;12319;49.204;8.116;2023-04-03T04:07:31;4.32;;;1.98;;
24163;SDS011;12319;49.204;8.116;2023-04-03T04:09:57;4.55;;;2.08;;
24163;SDS011;12319;49.204;8.116;2023-04-03T04:12:23;3.30;;;1.90;;
24163;SDS011;12319;49.204;8.116;2023-04-03T04:14:48;3.97;;;2.03;;
24163;SDS011;12319;49.204;8.116;2023-04-03T04:17:14;3.63;;;2.00;;
24163;SDS011;12319;49.204;8.116;2023-04-03T04:19:39;4.30;;;2.27;;
24163;SDS011;12319;49.204;8.116;2023-04-03T04:22:05;3.70;;;2.05;;
24163;SDS011;12319;49.204;8.116;2023-04-03T04:24:31;3.93;;;2.20;;
24163;SDS011;12319;49.204;8.116;2023-04-03T04:26:57;4.07;;;2.10;;
24163;SDS011;12319;49.204;8.116;2023-04-03T04:29:23;4.17;;;2.03;;
24163;SDS011;12319;49.204;8.116;2023-04-03T04:31:48;3.70;;;2.00;;
24163;SDS011;12319;49.204;8.116;2023-04-03T04:34:14;5.07;;;2.20;;
24163;SDS011;12319;49.204;8.116;2023-04-03T04:36:40;4.00;;;2.25;;
24163;SDS011;12319;49.204;8.116;2023-04-03T04:39:05;3.93;;;2.03;;
24163;SDS011;12319;49.204;8.116;2023-04-03T04:41:31;4.85;;;2.00;;
24163;SDS011;12319;49.204;8.116;2023-04-03T04:43:56;3.73;;;2.00;;
24163;SDS011;12319;49.204;8.116;2023-04-03T04:46:22;3.83;;;2.07;;
24163;SDS011;12319;49.204;8.116;2023-04-03T04:48:48;3.75;;;2.08;;
24163;SDS011;12319;49.204;8.116;2023-04-03T04:51:14;3.70;;;1.90;;
24163;SDS011;12319;49.204;8.116;2023-04-03T04:53:40;4.10;;;2.20;;
24163;SDS011;12319;49.204;8.116;2023-04-03T04:56:07;5.50;;;2.00;;
24163;SDS011;12319;49.204;8.116;2023-04-03T04:58:33;4.50;;;2.17;;
24163;SDS011;12319;49.204;8.116;2023-04-03T05:01:02;5.10;;;2.42;;
24163;SDS011;12319;49.204;8.116;2023-04-03T05:03:30;3.90;;;2.10;;
24163;SDS011;12319;49.204;8.116;2023-04-03T05:05:56;5.13;;;2.03;;
24163;SDS011;12319;49.204;8.116;2023-04-03T05:08:22;3.25;;;1.80;;
24163;SDS011;12319;49.204;8.116;2023-04-03T05:10:47;3.23;;;1.80;;
24163;SDS011;12319;49.204;8.116;2023-04-03T05:13:13;3.63;;;1.90;;
24163;SDS011;12319;49.204;8.116;2023-04-03T05:15:39;3.60;;;1.80;;
24163;SDS011;12319;49.204;8.116;2023-04-03T05:18:05;3.05;;;1.67;;
24163;SDS011;12319;49.204;8.116;2023-04-03T05:20:31;3.90;;;2.20;;
24163;SDS011;12319;49.204;8.116;2023-04-03T05:22:57;4.10;;;2.00;;
24163;SDS011;12319;49.204;8.116;2023-04-03T05:25:23;4.03;;;2.10;;
24163;SDS011;12319;49.204;8.116;2023-04-03T05:27:49;4.75;;;2.08;;
24163;SDS011;12319;49.204;8.116;2023-04-03T05:30:15;3.53;;;1.90;;
24163;SDS011;12319;49.204;8.116;2023-04-03T05:32:40;4.23;;;1.77;;
24163;SDS011;12319;49.204;8.116;2023-04-03T05:35:07;4.05;;;1.98;;
24163;SDS011;12319;49.204;8.116;2023-04-03T05:37:33;3.90;;;1.88;;
24163;SDS011;12319;49.204;8.116;2023-04-03T05:39:59;3.50;;;2.00;;
24163;SDS011;12319;49.204;8.116;2023-04-03T05:42:25;4.95;;;2.00;;
24163;SDS011;12319;49.204;8.116;2023-04-03T05:44:51;4.10;;;2.00;;
24163;SDS011;12319;49.204;8.116;2023-04-03T05:47:17;3.63;;;2.03;;
24163;SDS011;12319;49.204;8.116;2023-04-03T05:49:43;3.22;;;1.80;;
24163;SDS011;12319;49.204;8.116;2023-04-03T05:55:10;2.97;;;1.70;;
24163;SDS011;12319;49.204;8.116;2023-04-03T05:57:36;3.33;;;1.80;;
24163;SDS011;12319;49.204;8.116;2023-04-03T06:00:02;3.70;;;2.10;;
24163;SDS011;12319;49.204;8.116;2023-04-03T06:02:30;4.05;;;2.20;;
24163;SDS011;12319;49.204;8.116;2023-04-03T06:04:56;4.63;;;2.13;;
24163;SDS011;12319;49.204;8.116;2023-04-03T06:07:23;4.27;;;1.80;;
24163;SDS011;12319;49.204;8.116;2023-04-03T06:09:52;4.53;;;2.25;;
24163;SDS011;12319;49.204;8.116;2023-04-03T06:12:20;4.95;;;2.30;;
24163;SDS011;12319;49.204;8.116;2023-04-03T06:14:46;4.47;;;2.60;;
24163;SDS011;12319;49.204;8.116;2023-04-03T06:17:13;4.30;;;2.50;;
24163;SDS011;12319;49.204;8.116;2023-04-03T06:19:40;4.18;;;2.20;;
24163;SDS011;12319;49.204;8.116;2023-04-03T06:22:05;5.25;;;2.22;;
24163;SDS011;12319;49.204;8.116;2023-04-03T06:24:31;4.05;;;2.10;;
24163;SDS011;12319;49.204;8.116;2023-04-03T06:26:57;3.80;;;1.85;;
24163;SDS011;12319;49.204;8.116;2023-04-03T06:29:23;4.00;;;2.30;;
24163;SDS011;12319;49.204;8.116;2023-04-03T06:31:50;4.43;;;1.83;;
24163;SDS011;12319;49.204;8.116;2023-04-03T06:34:16;3.10;;;1.70;;
24163;SDS011;12319;49.204;8.116;2023-04-03T06:36:43;3.13;;;1.80;;
24163;SDS011;12319;49.204;8.116;2023-04-03T06:39:13;2.83;;;1.60;;
24163;SDS011;12319;49.204;8.116;2023-04-03T06:41:41;3.33;;;1.90;;
24163;SDS011;12319;49.204;8.116;2023-04-03T06:44:07;3.50;;;1.90;;
24163;SDS011;12319;49.204;8.116;2023-04-03T06:46:36;3.63;;;2.05;;
24163;SDS011;12319;49.204;8.116;2023-04-03T06:49:03;4.00;;;2.00;;
24163;SDS011;12319;49.204;8.116;2023-04-03T06:51:29;5.68;;;2.30;;
24163;SDS011;12319;49.204;8.116;2023-04-03T06:53:56;3.07;;;1.73;;
24163;SDS011;12319;49.204;8.116;2023-04-03T06:56:22;4.65;;;2.20;;
24163;SDS011;12319;49.204;8.116;2023-04-03T06:58:49;3.60;;;1.83;;
24163;SDS011;12319;49.204;8.116;2023-04-03T07:01:16;3.92;;;1.80;;
24163;SDS011;12319;49.204;8.116;2023-04-03T07:03:44;4.00;;;1.83;;
24163;SDS011;12319;49.204;8.116;2023-04-03T07:06:11;3.40;;;1.70;;
24163;SDS011;12319;49.204;8.116;2023-04-03T07:08:38;3.95;;;2.15;;
24163;SDS011;12319;49.204;8.116;2023-04-03T07:11:04;3.92;;;2.13;;
24163;SDS011;12319;49.204;8.116;2023-04-03T07:13:30;4.90;;;2.78;;
24163;SDS011;12319;49.204;8.116;2023-04-03T07:15:56;4.50;;;2.63;;
24163;SDS011;12319;49.204;8.116;2023-04-03T07:18:22;4.30;;;2.30;;
24163;SDS011;12319;49.204;8.116;2023-04-03T07:20:48;4.60;;;2.55;;
24163;SDS011;12319;49.204;8.116;2023-04-03T07:23:14;5.03;;;2.03;;
24163;SDS011;12319;49.204;8.116;2023-04-03T07:25:46;3.70;;;1.95;;
24163;SDS011;12319;49.204;8.116;2023-04-03T07:28:13;3.90;;;1.85;;
24163;SDS011;12319;49.204;8.116;2023-04-03T07:30:59;2.88;;;1.60;;
24163;SDS011;12319;49.204;8.116;2023-04-03T07:33:27;4.32;;;1.90;;
24163;SDS011;12319;49.204;8.116;2023-04-03T07:35:53;3.07;;;1.40;;
24163;SDS011;12319;49.204;8.116;2023-04-03T07:38:18;3.27;;;1.50;;
24163;SDS011;12319;49.204;8.116;2023-04-03T07:40:48;3.80;;;1.60;;
24163;SDS011;12319;49.204;8.116;2023-04-03T07:43:15;3.35;;;1.67;;
24163;SDS011;12319;49.204;8.116;2023-04-03T07:45:43;3.92;;;1.70;;
24163;SDS011;12319;49.204;8.116;2023-04-03T07:48:10;4.03;;;1.40;;
24163;SDS011;12319;49.204;8.116;2023-04-03T07:50:36;3.35;;;1.58;;
24163;SDS011;12319;49.204;8.116;2023-04-03T07:53:02;3.35;;;1.60;;
24163;SDS011;12319;49.204;8.116;2023-04-03T07:55:28;3.15;;;1.35;;
24163;SDS011;12319;49.204;8.116;2023-04-03T07:57:53;3.45;;;1.50;;
24163;SDS011;12319;49.204;8.116;2023-04-03T08:00:19;4.37;;;1.33;;
24163;SDS011;12319;49.204;8.116;2023-04-03T08:02:45;3.03;;;1.52;;
24163;SDS011;12319;49.204;8.116;2023-04-03T08:05:15;2.90;;;1.35;;
24163;SDS011;12319;49.204;8.116;2023-04-03T08:07:42;3.47;;;1.40;;
24163;SDS011;12319;49.204;8.116;2023-04-03T08:10:08;2.67;;;1.30;;
24163;SDS011;12319;49.204;8.116;2023-04-03T08:12:34;4.00;;;1.60;;
24163;SDS011;12319;49.204;8.116;2023-04-03T08:14:59;2.10;;;1.00;;
24163;SDS011;12319;49.204;8.116;2023-04-03T08:17:26;3.13;;;1.40;;
24163;SDS011;12319;49.204;8.116;2023-04-03T08:19:51;3.22;;;1.23;;
24163;SDS011;12319;49.204;8.116;2023-04-03T08:22:17;3.67;;;1.50;;
24163;SDS011;12319;49.204;8.116;2023-04-03T08:24:42;4.13;;;1.60;;
24163;SDS011;12319;49.204;8.116;2023-04-03T08:27:08;3.15;;;1.40;;
24163;SDS011;12319;49.204;8.116;2023-04-03T08:29:34;3.77;;;1.60;;
24163;SDS011;12319;49.204;8.116;2023-04-03T08:31:59;3.22;;;1.30;;
24163;SDS011;12319;49.204;8.116;2023-04-03T08:34:25;4.47;;;1.43;;
24163;SDS011;12319;49.204;8.116;2023-04-03T08:36:51;4.80;;;1.38;;
24163;SDS011;12319;49.204;8.116;2023-04-03T08:39:16;2.47;;;1.20;;
24163;SDS011;12319;49.204;8.116;2023-04-03T08:41:42;3.67;;;1.40;;
24163;SDS011;12319;49.204;8.116;2023-04-03T08:52:12;3.77;;;1.20;;
24163;SDS011;12319;49.204;8.116;2023-04-03T08:54:55;3.20;;;1.40;;
24163;SDS011;12319;49.204;8.116;2023-04-03T08:57:36;3.05;;;1.30;;
24163;SDS011;12319;49.204;8.116;2023-04-03T09:00:06;2.65;;;1.23;;
24163;SDS011;12319;49.204;8.116;2023-04-03T09:02:44;2.70;;;1.13;;
24163;SDS011;12319;49.204;8.116;2023-04-03T09:08:26;2.80;;;1.10;;
24163;SDS011;12319;49.204;8.116;2023-04-03T09:16:52;6.03;;;1.30;;
24163;SDS011;12319;49.204;8.116;2023-04-03T09:22:07;3.38;;;1.30;;
24163;SDS011;12319;49.204;8.116;2023-04-03T09:27:35;4.43;;;1.63;;
24163;SDS011;12319;49.204;8.116;2023-04-03T09:30:01;3.47;;;1.40;;
24163;SDS011;12319;49.204;8.116;2023-04-03T09:32:28;3.75;;;1.60;;
24163;SDS011;12319;49.204;8.116;2023-04-03T09:35:01;3.30;;;1.50;;
24163;SDS011;12319;49.204;8.116;2023-04-03T09:40:05;3.45;;;1.70;;
24163;SDS011;12319;49.204;8.116;2023-04-03T09:42:54;2.73;;;1.40;;
24163;SDS011;12319;49.204;8.116;2023-04-03T09:45:25;4.68;;;1.40;;
24163;SDS011;12319;49.204;8.116;2023-04-03T09:48:12;3.15;;;1.50;;
24163;SDS011;12319;49.204;8.116;2023-04-03T09:56:00;4.13;;;1.47;;
24163;SDS011;12319;49.204;8.116;2023-04-03T09:58:29;4.22;;;1.90;;
24163;SDS011;12319;49.204;8.116;2023-04-03T10:00:59;3.40;;;1.58;;
24163;SDS011;12319;49.204;8.116;2023-04-03T10:03:33;3.53;;;1.50;;
24163;SDS011;12319;49.204;8.116;2023-04-03T10:06:01;3.65;;;1.60;;
24163;SDS011;12319;49.204;8.116;2023-04-03T10:08:46;2.87;;;1.47;;
24163;SDS011;12319;49.204;8.116;2023-04-03T10:11:29;3.28;;;1.50;;
24163;SDS011;12319;49.204;8.116;2023-04-03T10:13:55;3.90;;;1.70;;
24163;SDS011;12319;49.204;8.116;2023-04-03T10:16:27;2.80;;;1.50;;
24163;SDS011;12319;49.204;8.116;2023-04-03T10:19:17;3.13;;;1.42;;
24163;SDS011;12319;49.204;8.116;2023-04-03T10:21:57;4.38;;;1.55;;
24163;SDS011;12319;49.204;8.116;2023-04-03T10:24:54;3.20;;;1.58;;
24163;SDS011;12319;49.204;8.116;2023-04-03T10:35:57;2.75;;;1.45;;
24163;SDS011;12319;49.204;8.116;2023-04-03T10:43:50;3.20;;;1.50;;
24163;SDS011;12319;49.204;8.116;2023-04-03T10:46:43;3.45;;;1.60;;
24163;SDS011;12319;49.204;8.116;2023-04-03T10:54:47;3.13;;;1.60;;
24163;SDS011;12319;49.204;8.116;2023-04-03T10:57:33;3.60;;;1.60;;
24163;SDS011;12319;49.204;8.116;2023-04-03T11:00:02;3.47;;;1.55;;
24163;SDS011;12319;49.204;8.116;2023-04-03T11:02:41;2.70;;;1.45;;
24163;SDS011;12319;49.204;8.116;2023-04-03T11:07:55;3.05;;;1.38;;
24163;SDS011;12319;49.204;8.116;2023-04-03T11:10:42;2.97;;;1.50;;
24163;SDS011;12319;49.204;8.116;2023-04-03T11:13:13;2.95;;;1.48;;
24163;SDS011;12319;49.204;8.116;2023-04-03T11:15:43;3.75;;;1.90;;
24163;SDS011;12319;49.204;8.116;2023-04-03T11:18:19;3.33;;;1.65;;
24163;SDS011;12319;49.204;8.116;2023-04-03T11:21:13;3.60;;;1.52;;
24163;SDS011;12319;49.204;8.116;2023-04-03T11:23:39;2.83;;;1.60;;
24163;SDS011;12319;49.204;8.116;2023-04-03T11:26:10;3.15;;;1.45;;
24163;SDS011;12319;49.204;8.116;2023-04-03T11:28:39;3.28;;;1.60;;
24163;SDS011;12319;49.204;8.116;2023-04-03T11:31:12;2.70;;;1.40;;
24163;SDS011;12319;49.204;8.116;2023-04-03T11:34:00;2.08;;;1.20;;
24163;SDS011;12319;49.204;8.116;2023-04-03T11:36:49;4.03;;;1.73;;
24163;SDS011;12319;49.204;8.116;2023-04-03T11:44:51;2.28;;;1.30;;
24163;SDS011;12319;49.204;8.116;2023-04-03T11:48:41;2.38;;;1.20;;
24163;SDS011;12319;49.204;8.116;2023-04-03T11:51:00;2.13;;;1.20;;
24163;SDS011;12319;49.204;8.116;2023-04-03T11:53:36;1.95;;;1.30;;
24163;SDS011;12319;49.204;8.116;2023-04-03T12:04:19;2.97;;;1.57;;
24163;SDS011;12319;49.204;8.116;2023-04-03T12:09:23;2.97;;;1.42;;
24163;SDS011;12319;49.204;8.116;2023-04-03T12:11:49;2.97;;;1.27;;
24163;SDS011;12319;49.204;8.116;2023-04-03T12:14:16;2.90;;;1.40;;
24163;SDS011;12319;49.204;8.116;2023-04-03T12:16:46;2.40;;;1.40;;
24163;SDS011;12319;49.204;8.116;2023-04-03T12:24:29;2.43;;;1.20;;
24163;SDS011;12319;49.204;8.116;2023-04-03T12:29:27;2.70;;;1.40;;
24163;SDS011;12319;49.204;8.116;2023-04-03T12:37:15;2.33;;;1.27;;
24163;SDS011;12319;49.204;8.116;2023-04-03T12:40:06;2.85;;;1.50;;
24163;SDS011;12319;49.204;8.116;2023-04-03T12:42:39;4.63;;;1.80;;
24163;SDS011;12319;49.204;8.116;2023-04-03T12:45:23;3.00;;;1.60;;
24163;SDS011;12319;49.204;8.116;2023-04-03T12:47:52;2.47;;;1.50;;
24163;SDS011;12319;49.204;8.116;2023-04-03T12:53:05;3.15;;;1.60;;
24163;SDS011;12319;49.204;8.116;2023-04-03T12:55:36;3.80;;;1.67;;
24163;SDS011;12319;49.204;8.116;2023-04-03T13:01:04;4.07;;;1.60;;
24163;SDS011;12319;49.204;8.116;2023-04-03T13:03:39;3.90;;;1.53;;
24163;SDS011;12319;49.204;8.116;2023-04-03T13:06:10;2.80;;;1.60;;
24163;SDS011;12319;49.204;8.116;2023-04-03T13:08:48;2.70;;;1.52;;
24163;SDS011;12319;49.204;8.116;2023-04-03T13:11:18;3.40;;;1.52;;
24163;SDS011;12319;49.204;8.116;2023-04-03T13:16:26;2.70;;;1.47;;
24163;SDS011;12319;49.204;8.116;2023-04-03T13:18:52;4.22;;;1.60;;
24163;SDS011;12319;49.204;8.116;2023-04-03T13:21:21;2.85;;;1.55;;
24163;SDS011;12319;49.204;8.116;2023-04-03T13:23:53;3.95;;;1.65;;
24163;SDS011;12319;49.204;8.116;2023-04-03T13:26:22;3.47;;;1.67;;
24163;SDS011;12319;49.204;8.116;2023-04-03T13:28:51;3.53;;;1.58;;
24163;SDS011;12319;49.204;8.116;2023-04-03T13:31:20;3.15;;;1.70;;
24163;SDS011;12319;49.204;8.116;2023-04-03T13:34:05;2.60;;;1.50;;
24163;SDS011;12319;49.204;8.116;2023-04-03T13:36:43;3.70;;;1.70;;
24163;SDS011;12319;49.204;8.116;2023-04-03T13:41:46;3.88;;;1.70;;
24163;SDS011;12319;49.204;8.116;2023-04-03T13:44:26;2.80;;;1.50;;
24163;SDS011;12319;49.204;8.116;2023-04-03T13:46:55;3.67;;;1.70;;
24163;SDS011;12319;49.204;8.116;2023-04-03T13:49:42;3.17;;;1.52;;
24163;SDS011;12319;49.204;8.116;2023-04-03T13:52:24;3.72;;;1.70;;
24163;SDS011;12319;49.204;8.116;2023-04-03T13:54:54;4.32;;;1.90;;
24163;SDS011;12319;49.204;8.116;2023-04-03T13:57:36;4.18;;;2.00;;
24163;SDS011;12319;49.204;8.116;2023-04-03T14:05:44;3.20;;;1.50;;
24163;SDS011;12319;49.204;8.116;2023-04-03T14:08:10;2.65;;;1.48;;
24163;SDS011;12319;49.204;8.116;2023-04-03T14:10:36;3.03;;;1.40;;
24163;SDS011;12319;49.204;8.116;2023-04-03T14:13:02;2.72;;;1.20;;
24163;SDS011;12319;49.204;8.116;2023-04-03T14:15:28;3.17;;;1.60;;
24163;SDS011;12319;49.204;8.116;2023-04-03T14:17:56;3.05;;;1.60;;
24163;SDS011;12319;49.204;8.116;2023-04-03T14:20:23;4.53;;;1.80;;
24163;SDS011;12319;49.204;8.116;2023-04-03T14:22:51;2.43;;;1.43;;
24163;SDS011;12319;49.204;8.116;2023-04-03T14:25:19;3.10;;;1.60;;
24163;SDS011;12319;49.204;8.116;2023-04-03T14:27:46;3.88;;;1.90;;
24163;SDS011;12319;49.204;8.116;2023-04-03T14:30:32;3.10;;;1.45;;
24163;SDS011;12319;49.204;8.116;2023-04-03T14:32:59;4.43;;;1.80;;
24163;SDS011;12319;49.204;8.116;2023-04-03T14:35:25;3.57;;;1.63;;
24163;SDS011;12319;49.204;8.116;2023-04-03T14:37:51;4.57;;;1.67;;
24163;SDS011;12319;49.204;8.116;2023-04-03T14:40:19;3.83;;;1.80;;
24163;SDS011;12319;49.204;8.116;2023-04-03T14:42:47;2.70;;;1.33;;
24163;SDS011;12319;49.204;8.116;2023-04-03T14:45:14;2.70;;;1.38;;
24163;SDS011;12319;49.204;8.116;2023-04-03T14:47:44;2.80;;;1.40;;
24163;SDS011;12319;49.204;8.116;2023-04-03T14:50:17;3.15;;;1.67;;
24163;SDS011;12319;49.204;8.116;2023-04-03T14:52:48;2.90;;;1.30;;
24163;SDS011;12319;49.204;8.116;2023-04-03T14:55:17;3.20;;;1.60;;
24163;SDS011;12319;49.204;8.116;2023-04-03T14:57:44;3.17;;;1.58;;
24163;SDS011;12319;49.204;8.116;2023-04-03T15:00:17;3.80;;;1.60;;
24163;SDS011;12319;49.204;8.116;2023-04-03T15:02:44;3.15;;;1.50;;
24163;SDS011;12319;49.204;8.116;2023-04-03T15:05:10;2.42;;;1.38;;
24163;SDS011;12319;49.204;8.116;2023-04-03T15:07:40;4.82;;;1.65;;
24163;SDS011;12319;49.204;8.116;2023-04-03T15:10:16;3.83;;;1.90;;
24163;SDS011;12319;49.204;8.116;2023-04-03T15:12:44;3.00;;;1.38;;
24163;SDS011;12319;49.204;8.116;2023-04-03T15:15:10;2.72;;;1.40;;
24163;SDS011;12319;49.204;8.116;2023-04-03T15:17:36;3.40;;;1.60;;
24163;SDS011;12319;49.204;8.116;2023-04-03T15:20:03;3.30;;;1.60;;
24163;SDS011;12319;49.204;8.116;2023-04-03T15:22:38;2.95;;;1.40;;
24163;SDS011;12319;49.204;8.116;2023-04-03T15:25:04;3.03;;;1.40;;
24163;SDS011;12319;49.204;8.116;2023-04-03T15:27:31;3.20;;;1.70;;
24163;SDS011;12319;49.204;8.116;2023-04-03T15:29:57;3.80;;;1.67;;
24163;SDS011;12319;49.204;8.116;2023-04-03T15:32:23;2.47;;;1.40;;
24163;SDS011;12319;49.204;8.116;2023-04-03T15:34:48;3.37;;;1.70;;
24163;SDS011;12319;49.204;8.116;2023-04-03T15:37:14;2.77;;;1.50;;
24163;SDS011;12319;49.204;8.116;2023-04-03T15:39:40;2.70;;;1.45;;
24163;SDS011;12319;49.204;8.116;2023-04-03T15:42:05;3.33;;;1.70;;
24163;SDS011;12319;49.204;8.116;2023-04-03T15:44:31;5.20;;;1.83;;
24163;SDS011;12319;49.204;8.116;2023-04-03T15:46:58;3.40;;;1.60;;
24163;SDS011;12319;49.204;8.116;2023-04-03T15:49:25;3.00;;;1.50;;
24163;SDS011;12319;49.204;8.116;2023-04-03T15:51:51;2.87;;;1.60;;
24163;SDS011;12319;49.204;8.116;2023-04-03T15:54:17;3.38;;;1.70;;
24163;SDS011;12319;49.204;8.116;2023-04-03T15:56:42;3.58;;;1.80;;
24163;SDS011;12319;49.204;8.116;2023-04-03T15:59:08;2.63;;;1.50;;
24163;SDS011;12319;49.204;8.116;2023-04-03T16:01:34;4.07;;;1.90;;
24163;SDS011;12319;49.204;8.116;2023-04-03T16:04:01;3.85;;;1.67;;
24163;SDS011;12319;49.204;8.116;2023-04-03T16:06:27;3.40;;;1.87;;
24163;SDS011;12319;49.204;8.116;2023-04-03T16:08:55;2.90;;;1.60;;
24163;SDS011;12319;49.204;8.116;2023-04-03T16:11:23;4.00;;;1.65;;
24163;SDS011;12319;49.204;8.116;2023-04-03T16:13:50;3.90;;;1.88;;
24163;SDS011;12319;49.204;8.116;2023-04-03T16:16:15;4.53;;;1.63;;
24163;SDS011;12319;49.204;8.116;2023-04-03T16:18:41;3.38;;;1.80;;
24163;SDS011;12319;49.204;8.116;2023-04-03T16:21:07;2.73;;;1.40;;
24163;SDS011;12319;49.204;8.116;2023-04-03T16:23:33;3.17;;;1.63;;
24163;SDS011;12319;49.204;8.116;2023-04-03T16:25:59;3.55;;;1.67;;
24163;SDS011;12319;49.204;8.116;2023-04-03T16:28:25;3.30;;;1.57;;
24163;SDS011;12319;49.204;8.116;2023-04-03T16:30:51;3.00;;;1.70;;
24163;SDS011;12319;49.204;8.116;2023-04-03T16:33:16;3.20;;;1.70;;
24163;SDS011;12319;49.204;8.116;2023-04-03T16:35:42;3.17;;;1.63;;
24163;SDS011;12319;49.204;8.116;2023-04-03T16:38:09;3.00;;;1.60;;
24163;SDS011;12319;49.204;8.116;2023-04-03T16:40:35;3.72;;;1.70;;
24163;SDS011;12319;49.204;8.116;2023-04-03T16:43:01;4.32;;;1.92;;
24163;SDS011;12319;49.204;8.116;2023-04-03T16:45:27;3.00;;;1.57;;